createdAt,value
2018-07-24T00:01:47.335Z,5.33
2018-07-24T00:04:15.820Z,5.40
2018-07-24T00:06:44.235Z,4.92
2018-07-24T00:09:12.680Z,4.85
2018-07-24T00:11:41.087Z,4.92
2018-07-24T00:14:09.575Z,4.78
2018-07-24T00:16:38.861Z,5.47
2018-07-24T00:19:07.300Z,5.78
2018-07-24T00:21:35.722Z,5.42
2018-07-24T00:24:04.207Z,5.45
2018-07-24T00:26:33.272Z,5.95
2018-07-24T00:29:01.716Z,5.65
2018-07-24T00:31:30.177Z,5.72
2018-07-24T00:33:58.608Z,5.72
2018-07-24T00:36:27.068Z,5.92
2018-07-24T00:38:55.540Z,6.25
2018-07-24T00:41:23.996Z,5.95
2018-07-24T00:43:52.427Z,6.30
2018-07-24T00:46:20.955Z,5.83
2018-07-24T00:48:49.357Z,6.05
2018-07-24T00:51:17.812Z,5.80
2018-07-24T00:53:46.240Z,5.90
2018-07-24T00:56:14.694Z,5.70
2018-07-24T00:58:43.088Z,6.30
2018-07-24T01:01:11.655Z,6.33
2018-07-24T01:03:40.069Z,6.10
2018-07-24T01:06:08.484Z,6.08
2018-07-24T01:08:37.060Z,6.17
2018-07-24T01:11:05.522Z,6.50
2018-07-24T01:13:34.506Z,6.58
2018-07-24T01:16:02.947Z,7.17
2018-07-24T01:18:31.409Z,7.10
2018-07-24T01:20:59.837Z,7.15
2018-07-24T01:23:28.292Z,6.78
2018-07-24T01:25:56.785Z,7.05
2018-07-24T01:28:25.188Z,6.62
2018-07-24T01:30:53.592Z,6.83
2018-07-24T01:33:22.077Z,7.12
2018-07-24T01:35:50.546Z,7.53
2018-07-24T01:38:18.993Z,7.70
2018-07-24T01:40:47.456Z,7.20
2018-07-24T01:43:15.876Z,7.92
2018-07-24T01:45:44.343Z,7.47
2018-07-24T01:48:12.752Z,7.50
2018-07-24T01:50:41.175Z,7.60
2018-07-24T01:53:09.599Z,7.22
2018-07-24T01:55:38.037Z,7.03
2018-07-24T01:58:06.481Z,7.65
2018-07-24T02:00:34.862Z,7.30
2018-07-24T02:03:03.301Z,7.67
2018-07-24T02:05:31.764Z,7.53
2018-07-24T02:08:00.265Z,7.08
2018-07-24T02:10:28.697Z,7.35
2018-07-24T02:12:57.749Z,7.58
2018-07-24T02:15:26.259Z,7.65
2018-07-24T02:17:54.704Z,7.90
2018-07-24T02:20:23.204Z,8.15
2018-07-24T02:22:51.647Z,7.80
2018-07-24T02:25:20.079Z,8.48
2018-07-24T02:27:48.503Z,8.03
2018-07-24T02:30:16.912Z,8.43
2018-07-24T02:32:45.905Z,8.48
2018-07-24T02:35:14.366Z,7.58
2018-07-24T02:37:42.769Z,8.03
2018-07-24T02:40:11.214Z,7.60
2018-07-24T02:42:40.380Z,7.97
2018-07-24T02:45:09.333Z,7.83
2018-07-24T02:47:37.781Z,8.25
2018-07-24T02:50:06.577Z,7.97
2018-07-24T02:52:35.021Z,8.55
2018-07-24T02:55:03.469Z,8.40
2018-07-24T02:57:31.984Z,8.68
2018-07-24T03:00:00.433Z,8.53
2018-07-24T03:02:28.881Z,8.88
2018-07-24T03:04:57.456Z,8.70
2018-07-24T03:07:25.836Z,9.03
2018-07-24T03:09:54.228Z,8.53
2018-07-24T03:12:22.648Z,8.65
2018-07-24T03:14:51.648Z,8.40
2018-07-24T03:17:20.092Z,8.20
2018-07-24T03:19:48.510Z,8.10
2018-07-24T03:22:16.940Z,8.60
2018-07-24T03:24:45.350Z,8.03
2018-07-24T03:27:13.840Z,7.92
2018-07-24T03:29:42.257Z,7.87
2018-07-24T03:32:10.794Z,8.23
2018-07-24T03:34:39.336Z,7.85
2018-07-24T03:37:07.755Z,8.08
2018-07-24T03:39:36.288Z,8.00
2018-07-24T03:42:04.692Z,7.20
2018-07-24T03:44:33.094Z,7.90
2018-07-24T03:47:01.560Z,7.12
2018-07-24T03:49:29.993Z,7.55
2018-07-24T03:51:58.376Z,7.35
2018-07-24T03:54:27.507Z,6.97
2018-07-24T03:56:56.053Z,7.55
2018-07-24T03:59:24.685Z,7.03
2018-07-24T04:01:53.189Z,6.75
2018-07-24T04:04:21.645Z,7.15
2018-07-24T04:06:50.065Z,7.75
2018-07-24T04:09:18.514Z,7.67
2018-07-24T04:11:46.953Z,7.05
2018-07-24T04:14:15.372Z,8.05
2018-07-24T04:16:44.500Z,7.80
2018-07-24T04:19:12.917Z,7.20
2018-07-24T04:21:41.338Z,7.47
2018-07-24T04:24:09.825Z,8.03
2018-07-24T04:26:38.269Z,10.85
2018-07-24T04:29:06.677Z,14.07
2018-07-24T04:31:35.137Z,7.25
2018-07-24T04:34:03.561Z,6.97
2018-07-24T04:36:31.994Z,6.50
2018-07-24T04:39:00.406Z,6.67
2018-07-24T04:41:28.884Z,8.63
2018-07-24T04:43:57.905Z,9.38
2018-07-24T04:46:26.343Z,8.53
2018-07-24T04:48:54.787Z,10.08
2018-07-24T04:51:23.225Z,8.80
2018-07-24T04:53:52.376Z,7.37
2018-07-24T04:56:20.803Z,7.58
2018-07-24T04:58:49.244Z,7.67
2018-07-24T05:01:17.808Z,8.35
2018-07-24T05:03:46.266Z,7.70
2018-07-24T05:06:14.715Z,7.65
2018-07-24T05:08:43.217Z,7.58
2018-07-24T05:11:11.628Z,7.25
2018-07-24T05:13:40.140Z,6.83
2018-07-24T05:16:08.560Z,7.00
2018-07-24T05:18:36.965Z,10.65
2018-07-24T05:21:07.095Z,6.85
2018-07-24T05:23:35.547Z,6.75
2018-07-24T05:26:03.964Z,7.15
2018-07-24T05:28:32.493Z,7.12
2018-07-24T05:31:01.388Z,6.72
2018-07-24T05:33:29.857Z,6.80
2018-07-24T05:35:58.264Z,6.65
2018-07-24T05:38:26.720Z,6.50
2018-07-24T05:40:55.220Z,7.10
2018-07-24T05:43:23.624Z,6.72
2018-07-24T05:45:52.091Z,7.15
2018-07-24T05:48:20.630Z,6.47
2018-07-24T05:50:49.060Z,6.25
2018-07-24T05:53:17.540Z,6.42
2018-07-24T05:55:46.006Z,6.85
2018-07-24T05:58:14.416Z,6.28
2018-07-24T06:00:42.964Z,6.20
2018-07-24T06:03:11.400Z,6.45
2018-07-24T06:05:39.897Z,6.83
2018-07-24T06:08:08.377Z,5.90
2018-07-24T06:10:36.821Z,5.92
2018-07-24T06:13:05.329Z,6.40
2018-07-24T06:15:33.769Z,6.05
2018-07-24T06:18:02.201Z,6.15
2018-07-24T06:20:30.706Z,6.17
2018-07-24T06:22:59.101Z,6.55
2018-07-24T06:25:27.517Z,6.00
2018-07-24T06:27:57.149Z,6.00
2018-07-24T06:30:25.623Z,5.65
2018-07-24T06:32:54.041Z,5.20
2018-07-24T06:35:22.473Z,5.37
2018-07-24T06:37:51.184Z,5.97
2018-07-24T06:40:19.707Z,5.92
2018-07-24T06:42:48.174Z,5.90
2018-07-24T06:45:16.681Z,5.50
2018-07-24T06:47:45.150Z,5.17
2018-07-24T06:50:13.571Z,5.22
2018-07-24T06:52:42.060Z,5.58
2018-07-24T06:55:10.537Z,5.10
2018-07-24T06:57:39.553Z,5.00
2018-07-24T07:00:08.021Z,5.00
2018-07-24T07:02:36.516Z,5.17
2018-07-24T07:05:05.089Z,4.95
2018-07-24T07:07:33.524Z,5.10
2018-07-24T07:10:01.947Z,5.37
2018-07-24T07:12:30.462Z,5.20
2018-07-24T07:14:59.000Z,5.42
2018-07-24T07:17:27.429Z,5.17
2018-07-24T07:19:56.223Z,6.97
2018-07-24T07:22:25.000Z,4.85
2018-07-24T07:24:53.428Z,5.17
2018-07-24T07:27:21.907Z,5.03
2018-07-24T07:29:50.827Z,4.53
2018-07-24T07:32:19.397Z,4.87
2018-07-24T07:34:47.816Z,5.15
2018-07-24T07:37:16.258Z,4.75
2018-07-24T07:39:44.880Z,4.50
2018-07-24T07:42:13.313Z,4.45
2018-07-24T07:44:41.817Z,4.12
2018-07-24T07:47:10.259Z,3.98
2018-07-24T07:49:38.714Z,4.17
2018-07-24T07:52:07.217Z,4.28
2018-07-24T07:54:35.649Z,4.40
2018-07-24T07:57:04.119Z,4.17
2018-07-24T07:59:32.674Z,4.10
2018-07-24T08:02:01.233Z,3.72
2018-07-24T08:04:29.398Z,3.90
2018-07-24T08:06:57.806Z,3.80
2018-07-24T08:09:26.368Z,3.70
2018-07-24T08:11:54.993Z,3.80
2018-07-24T08:14:23.529Z,3.45
2018-07-24T08:16:52.001Z,3.67
2018-07-24T08:19:20.452Z,3.65
2018-07-24T08:21:48.886Z,3.92
2018-07-24T08:24:17.367Z,3.70
2018-07-24T08:26:45.793Z,3.98
2018-07-24T08:29:14.202Z,3.80
2018-07-24T08:31:43.425Z,3.55
2018-07-24T08:34:11.991Z,3.27
2018-07-24T08:36:40.851Z,2.62
2018-07-24T08:39:11.005Z,2.62
2018-07-24T08:41:39.632Z,3.47
2018-07-24T08:44:08.057Z,3.27
2018-07-24T08:46:36.512Z,3.10
2018-07-24T08:49:05.092Z,3.37
2018-07-24T08:51:33.604Z,3.00
2018-07-24T08:54:02.828Z,2.62
2018-07-24T08:56:31.200Z,2.92
2018-07-24T08:58:59.873Z,2.87
2018-07-24T09:01:28.354Z,2.65
2018-07-24T09:03:56.892Z,3.00
2018-07-24T09:06:25.316Z,2.85
2018-07-24T09:08:53.739Z,2.70
2018-07-24T09:11:22.268Z,2.70
2018-07-24T09:13:50.844Z,2.70
2018-07-24T09:16:19.317Z,2.90
2018-07-24T09:18:47.836Z,2.85
2018-07-24T09:21:16.644Z,3.10
2018-07-24T09:23:45.094Z,2.80
2018-07-24T09:26:13.881Z,2.60
2018-07-24T09:28:42.369Z,2.70
2018-07-24T09:31:11.561Z,2.60
2018-07-24T09:33:39.997Z,2.60
2018-07-24T09:36:08.439Z,2.30
2018-07-24T09:38:37.006Z,2.58
2018-07-24T09:41:06.459Z,2.33
2018-07-24T09:43:39.208Z,2.70
2018-07-24T09:46:07.633Z,2.50
2018-07-24T09:48:36.269Z,2.52
2018-07-24T09:51:04.746Z,2.60
2018-07-24T09:53:33.248Z,2.45
2018-07-24T09:56:02.292Z,2.30
2018-07-24T09:58:30.877Z,2.40
2018-07-24T10:01:04.651Z,2.70
2018-07-24T10:03:33.132Z,2.42
2018-07-24T10:06:01.605Z,2.35
2018-07-24T10:08:30.154Z,2.50
2018-07-24T10:10:58.740Z,2.27
2018-07-24T10:13:27.241Z,2.92
2018-07-24T10:15:55.606Z,2.42
2018-07-24T10:18:24.124Z,2.62
2018-07-24T10:20:52.535Z,2.27
2018-07-24T10:23:21.718Z,2.20
2018-07-24T10:25:50.157Z,2.22
2018-07-24T10:28:18.629Z,2.30
2018-07-24T10:30:47.182Z,2.27
2018-07-24T10:33:15.749Z,2.00
2018-07-24T10:35:44.326Z,2.25
2018-07-24T10:38:12.792Z,2.17
2018-07-24T10:40:41.862Z,2.12
2018-07-24T10:43:10.384Z,2.35
2018-07-24T10:45:38.812Z,2.17
2018-07-24T10:48:07.293Z,2.10
2018-07-24T10:50:36.451Z,2.10
2018-07-24T10:53:05.514Z,2.30
2018-07-24T10:55:33.698Z,2.30
2018-07-24T10:58:02.270Z,2.35
2018-07-24T11:00:30.813Z,2.47
2018-07-24T11:02:59.329Z,2.00
2018-07-24T11:05:27.957Z,2.20
2018-07-24T11:07:56.438Z,2.20
2018-07-24T11:10:24.893Z,1.95
2018-07-24T11:12:53.441Z,2.37
2018-07-24T11:15:22.593Z,2.45
2018-07-24T11:17:51.502Z,2.55
2018-07-24T11:20:20.018Z,2.35
2018-07-24T11:22:48.886Z,2.40
2018-07-24T11:25:17.133Z,2.42
2018-07-24T11:27:46.371Z,2.35
2018-07-24T11:30:14.912Z,2.37
2018-07-24T11:32:47.973Z,2.00
2018-07-24T11:35:16.501Z,2.20
2018-07-24T11:37:45.061Z,1.95
2018-07-24T11:40:13.582Z,2.20
2018-07-24T11:42:42.017Z,1.90
2018-07-24T11:45:10.361Z,2.10
2018-07-24T11:47:39.695Z,2.02
2018-07-24T11:50:09.042Z,2.30
2018-07-24T11:52:37.508Z,2.62
2018-07-24T11:55:06.239Z,2.60
2018-07-24T11:57:34.895Z,2.60
2018-07-24T12:00:03.882Z,2.70
2018-07-24T12:02:32.350Z,2.40
2018-07-24T12:05:00.877Z,2.33
2018-07-24T12:07:29.463Z,2.60
2018-07-24T12:09:57.897Z,1.90
2018-07-24T12:12:26.320Z,2.10
2018-07-24T12:14:54.779Z,2.30
2018-07-24T12:17:23.401Z,2.25
2018-07-24T12:19:51.990Z,2.27
2018-07-24T12:22:20.437Z,2.10
2018-07-24T12:24:48.888Z,1.92
2018-07-24T12:27:17.497Z,2.25
2018-07-24T12:29:45.992Z,2.27
2018-07-24T12:32:14.476Z,2.00
2018-07-24T12:34:43.121Z,2.00
2018-07-24T12:37:12.434Z,2.30
2018-07-24T12:39:40.971Z,2.12
2018-07-24T12:42:09.450Z,2.00
2018-07-24T12:44:37.903Z,2.00
2018-07-24T12:47:06.393Z,2.00
2018-07-24T12:49:34.871Z,2.08
2018-07-24T12:52:03.356Z,2.20
2018-07-24T12:54:31.857Z,2.17
2018-07-24T12:57:00.430Z,2.20
2018-07-24T12:59:28.867Z,2.40
2018-07-24T13:01:57.376Z,2.10
2018-07-24T13:04:25.821Z,2.50
2018-07-24T13:06:54.260Z,2.17
2018-07-24T13:09:22.769Z,2.10
2018-07-24T13:11:51.309Z,2.10
2018-07-24T13:14:19.881Z,2.20
2018-07-24T13:16:48.364Z,2.37
2018-07-24T13:19:16.858Z,2.17
2018-07-24T13:21:45.348Z,2.27
2018-07-24T13:24:13.882Z,2.30
2018-07-24T13:26:42.405Z,2.30
2018-07-24T13:29:10.920Z,2.20
2018-07-24T13:31:39.524Z,2.30
2018-07-24T13:34:07.957Z,2.30
2018-07-24T13:36:36.437Z,2.25
2018-07-24T13:39:07.929Z,2.30
2018-07-24T13:41:36.381Z,2.17
2018-07-24T13:44:04.905Z,2.35
2018-07-24T13:46:33.532Z,2.00
2018-07-24T13:49:01.972Z,2.00
2018-07-24T13:51:30.516Z,1.90
2018-07-24T13:53:59.035Z,2.12
2018-07-24T13:56:27.684Z,2.05
2018-07-24T13:58:56.784Z,2.02
2018-07-24T14:01:25.254Z,2.40
2018-07-24T14:03:53.773Z,1.95
2018-07-24T14:06:26.795Z,2.15
2018-07-24T14:08:55.272Z,2.02
2018-07-24T14:11:23.729Z,1.82
2018-07-24T14:13:52.191Z,2.00
2018-07-24T14:16:20.750Z,1.70
2018-07-24T14:18:49.285Z,1.98
2018-07-24T14:21:17.732Z,1.90
2018-07-24T14:23:46.189Z,1.95
2018-07-24T14:26:14.688Z,2.00
2018-07-24T14:28:43.250Z,1.87
2018-07-24T14:31:11.745Z,1.80
2018-07-24T14:33:40.263Z,1.80
2018-07-24T14:36:08.758Z,1.90
2018-07-24T14:38:37.209Z,1.70
2018-07-24T14:41:05.710Z,1.75
2018-07-24T14:43:34.315Z,1.80
2018-07-24T14:46:03.056Z,1.70
2018-07-24T14:48:31.941Z,1.80
2018-07-24T14:51:00.452Z,2.02
2018-07-24T14:53:28.956Z,2.05
2018-07-24T14:55:57.465Z,1.60
2018-07-24T14:58:25.909Z,1.52
2018-07-24T15:00:54.720Z,1.42
2018-07-24T15:03:23.424Z,2.02
2018-07-24T15:06:05.951Z,1.90
2018-07-24T15:08:34.445Z,1.90
2018-07-24T15:11:02.894Z,2.00
2018-07-24T15:13:31.384Z,4.58
2018-07-24T15:15:59.945Z,3.33
2018-07-24T15:18:28.461Z,2.10
2018-07-24T15:20:56.883Z,1.98
2018-07-24T15:23:25.408Z,2.20
2018-07-24T15:25:53.856Z,2.10
2018-07-24T15:28:22.403Z,2.08
2018-07-24T15:30:50.889Z,1.90
2018-07-24T15:33:19.468Z,2.10
2018-07-24T15:35:47.893Z,2.08
2018-07-24T15:38:16.479Z,2.10
2018-07-24T15:40:45.042Z,2.00
2018-07-24T15:43:13.768Z,2.25
2018-07-24T15:45:42.237Z,2.12
2018-07-24T15:48:10.729Z,2.30
2018-07-24T15:50:39.186Z,2.27
2018-07-24T15:53:07.901Z,2.22
2018-07-24T15:55:36.376Z,2.10
2018-07-24T15:58:04.962Z,2.30
2018-07-24T16:00:33.463Z,2.27
2018-07-24T16:03:01.909Z,2.22
2018-07-24T16:05:30.537Z,2.30
2018-07-24T16:07:58.996Z,2.20
2018-07-24T16:10:27.520Z,2.37
2018-07-24T16:12:56.637Z,2.40
2018-07-24T16:15:25.238Z,2.20
2018-07-24T16:17:53.701Z,2.22
2018-07-24T16:20:22.181Z,2.42
2018-07-24T16:22:50.654Z,2.30
2018-07-24T16:25:19.162Z,2.42
2018-07-24T16:27:47.621Z,2.35
2018-07-24T16:30:16.254Z,2.52
2018-07-24T16:32:44.789Z,12.68
2018-07-24T16:35:13.236Z,2.27
2018-07-24T16:37:41.654Z,2.35
2018-07-24T16:40:10.213Z,2.52
2018-07-24T16:42:38.694Z,4.55
2018-07-24T16:45:07.228Z,3.12
2018-07-24T16:47:35.679Z,2.42
2018-07-24T16:50:04.605Z,2.75
2018-07-24T16:52:33.017Z,2.42
2018-07-24T16:55:02.281Z,3.02
2018-07-24T16:57:30.769Z,2.62
2018-07-24T16:59:59.332Z,2.47
2018-07-24T17:02:27.867Z,3.17
2018-07-24T17:04:56.367Z,10.58
2018-07-24T17:07:24.840Z,2.80
2018-07-24T17:09:53.301Z,2.55
2018-07-24T17:12:21.757Z,3.60
2018-07-24T17:14:50.338Z,2.72
2018-07-24T17:17:18.811Z,2.35
2018-07-24T17:19:47.343Z,2.50
2018-07-24T17:22:15.745Z,2.40
2018-07-24T17:24:44.216Z,2.30
2018-07-24T17:27:12.722Z,2.25
2018-07-24T17:29:41.381Z,2.17
2018-07-24T17:32:10.065Z,1.90
2018-07-24T17:34:38.881Z,2.02
2018-07-24T17:37:07.320Z,2.27
2018-07-24T17:39:35.741Z,2.25
2018-07-24T17:42:04.168Z,2.50
2018-07-24T17:44:33.338Z,3.62
2018-07-24T17:47:01.781Z,2.22
2018-07-24T17:49:31.128Z,2.10
2018-07-24T17:51:59.649Z,2.15
2018-07-24T17:54:28.085Z,8.15
2018-07-24T17:56:56.898Z,7.10
2018-07-24T17:59:25.336Z,2.45
2018-07-24T18:01:53.784Z,2.58
2018-07-24T18:04:22.329Z,2.30
2018-07-24T18:06:50.821Z,1.80
2018-07-24T18:09:19.533Z,1.85
2018-07-24T18:11:48.105Z,1.90
2018-07-24T18:14:16.538Z,1.90
2018-07-24T18:16:45.026Z,1.70
2018-07-24T18:19:13.535Z,1.98
2018-07-24T18:21:41.984Z,2.00
2018-07-24T18:24:10.537Z,9.43
2018-07-24T18:26:39.240Z,5.45
2018-07-24T18:29:07.710Z,7.55
2018-07-24T18:31:36.151Z,6.53
2018-07-24T18:34:04.637Z,2.67
2018-07-24T18:36:33.456Z,3.60
2018-07-24T18:39:01.999Z,2.77
2018-07-24T18:41:30.458Z,2.20
2018-07-24T18:43:59.631Z,2.90
2018-07-24T18:46:28.327Z,1.92
2018-07-24T18:48:56.931Z,2.20
2018-07-24T18:51:25.399Z,2.10
2018-07-24T18:53:53.889Z,2.02
2018-07-24T18:56:22.697Z,2.30
2018-07-24T18:58:51.513Z,2.40
2018-07-24T19:01:20.053Z,2.42
2018-07-24T19:03:48.472Z,4.35
2018-07-24T19:06:16.912Z,3.83
2018-07-24T19:08:45.317Z,4.22
2018-07-24T19:11:13.868Z,4.90
2018-07-24T19:13:42.263Z,4.30
2018-07-24T19:16:10.686Z,3.20
2018-07-24T19:18:39.155Z,3.70
2018-07-24T19:21:07.751Z,3.05
2018-07-24T19:23:36.978Z,3.25
2018-07-24T19:26:05.541Z,3.05
2018-07-24T19:28:34.282Z,3.02
2018-07-24T19:31:02.767Z,2.72
2018-07-24T19:33:31.180Z,2.60
2018-07-24T19:35:59.873Z,2.83
2018-07-24T19:38:28.768Z,5.87
2018-07-24T19:40:57.378Z,4.47
2018-07-24T19:43:26.149Z,6.10
2018-07-24T19:45:54.706Z,4.20
2018-07-24T19:48:23.201Z,3.60
2018-07-24T19:50:52.206Z,3.52
2018-07-24T19:53:20.677Z,2.90
2018-07-24T19:55:49.216Z,2.83
2018-07-24T19:58:17.697Z,2.72
2018-07-24T20:00:46.164Z,3.08
2018-07-24T20:03:14.641Z,2.62
2018-07-24T20:05:43.121Z,3.20
2018-07-24T20:08:11.623Z,2.83
2018-07-24T20:10:40.138Z,4.10
2018-07-24T20:13:08.597Z,21.15
2018-07-24T20:15:37.054Z,18.42
2018-07-24T20:18:05.515Z,10.23
2018-07-24T20:20:34.953Z,3.60
2018-07-24T20:23:03.191Z,3.33
2018-07-24T20:25:31.685Z,9.53
2018-07-24T20:28:00.141Z,9.53
2018-07-24T20:30:28.292Z,5.92
2018-07-24T20:32:56.769Z,3.90
2018-07-24T20:35:24.971Z,3.20
2018-07-24T20:37:53.430Z,2.92
2018-07-24T20:40:21.913Z,2.42
2018-07-24T20:42:50.376Z,2.58
2018-07-24T20:45:18.868Z,2.30
2018-07-24T20:47:47.085Z,2.90
2018-07-24T20:50:15.677Z,4.10
2018-07-24T20:52:44.086Z,4.20
2018-07-24T20:55:12.572Z,3.15
2018-07-24T20:57:41.032Z,2.87
2018-07-24T21:00:09.540Z,2.30
2018-07-24T21:02:37.964Z,2.50
2018-07-24T21:05:06.465Z,2.60
2018-07-24T21:07:34.985Z,2.77
2018-07-24T21:10:05.693Z,2.45
2018-07-24T21:12:34.124Z,2.30
2018-07-24T21:15:03.217Z,5.97
2018-07-24T21:17:31.667Z,7.47
2018-07-24T21:20:00.092Z,7.80
2018-07-24T21:22:28.596Z,3.45
2018-07-24T21:24:56.755Z,2.55
2018-07-24T21:27:24.975Z,2.12
2018-07-24T21:29:53.454Z,2.27
2018-07-24T21:32:21.912Z,2.30
2018-07-24T21:34:50.447Z,2.22
2018-07-24T21:37:18.908Z,2.87
2018-07-24T21:39:48.062Z,5.45
2018-07-24T21:42:16.596Z,3.17
2018-07-24T21:44:45.157Z,6.00
2018-07-24T21:47:13.905Z,2.65
2018-07-24T21:49:42.368Z,2.67
2018-07-24T21:52:10.880Z,2.30
2018-07-24T21:54:39.563Z,2.20
2018-07-24T21:57:08.240Z,2.35
2018-07-24T21:59:36.713Z,2.40
2018-07-24T22:02:05.500Z,2.58
2018-07-24T22:04:33.977Z,2.45
2018-07-24T22:07:02.993Z,2.70
2018-07-24T22:09:31.558Z,2.60
2018-07-24T22:12:00.876Z,2.70
2018-07-24T22:14:29.334Z,2.85
2018-07-24T22:16:58.029Z,13.43
2018-07-24T22:19:27.330Z,13.32
2018-07-24T22:21:55.916Z,2.83
2018-07-24T22:24:24.392Z,2.37
2018-07-24T22:26:52.867Z,2.40
2018-07-24T22:29:21.401Z,2.70
2018-07-24T22:31:49.851Z,2.75
2018-07-24T22:34:18.189Z,2.60
2018-07-24T22:36:47.443Z,3.02
2018-07-24T22:39:15.837Z,2.90
2018-07-24T22:41:44.377Z,2.77
2018-07-24T22:44:12.716Z,2.80
2018-07-24T22:46:41.405Z,2.77
2018-07-24T22:49:09.886Z,2.85
2018-07-24T22:51:38.226Z,2.95
2018-07-24T22:54:06.440Z,2.70
2018-07-24T22:56:34.812Z,2.90
2018-07-24T22:59:03.199Z,2.62
2018-07-24T23:01:31.576Z,3.00
2018-07-24T23:04:00.367Z,3.10
2018-07-24T23:06:28.783Z,2.55
2018-07-24T23:08:57.148Z,2.65
2018-07-24T23:11:25.505Z,2.80
2018-07-24T23:13:53.906Z,2.30
2018-07-24T23:16:22.378Z,2.85
2018-07-24T23:18:51.405Z,2.67
2018-07-24T23:21:19.724Z,2.70
2018-07-24T23:23:48.093Z,2.40
2018-07-24T23:26:16.462Z,2.70
2018-07-24T23:28:44.860Z,2.60
2018-07-24T23:31:13.211Z,2.80
2018-07-24T23:33:41.565Z,2.98
2018-07-24T23:36:09.891Z,2.47
2018-07-24T23:38:38.230Z,3.00
2018-07-24T23:41:06.601Z,2.52
2018-07-24T23:43:34.947Z,2.55
2018-07-24T23:46:03.329Z,2.77
2018-07-24T23:48:31.697Z,3.50
2018-07-24T23:51:00.047Z,3.08
2018-07-24T23:53:28.516Z,3.10
2018-07-24T23:55:56.890Z,3.17
2018-07-24T23:58:25.799Z,3.27
